sensor_id;sensor_type;location;lat;lon;timestamp;temperature;humidity
3194;DHT22;1608;50.860;13.466;2023-04-05T00:02:22;4.00;92.80
3194;DHT22;1608;50.860;13.466;2023-04-05T00:04:54;4.00;92.70
3194;DHT22;1608;50.860;13.466;2023-04-05T00:07:23;4.10;92.40
3194;DHT22;1608;50.860;13.466;2023-04-05T00:09:51;4.00;92.00
3194;DHT22;1608;50.860;13.466;2023-04-05T00:12:17;4.10;92.00
3194;DHT22;1608;50.860;13.466;2023-04-05T00:14:44;4.10;91.60
3194;DHT22;1608;50.860;13.466;2023-04-05T00:17:11;4.10;91.30
3194;DHT22;1608;50.860;13.466;2023-04-05T00:19:38;4.10;91.50
3194;DHT22;1608;50.860;13.466;2023-04-05T00:22:05;4.10;91.60
3194;DHT22;1608;50.860;13.466;2023-04-05T00:24:37;4.20;91.70
3194;DHT22;1608;50.860;13.466;2023-04-05T00:27:06;4.20;91.60
3194;DHT22;1608;50.860;13.466;2023-04-05T00:29:33;4.20;91.40
3194;DHT22;1608;50.860;13.466;2023-04-05T00:32:00;4.10;91.40
3194;DHT22;1608;50.860;13.466;2023-04-05T00:34:27;4.10;91.50
3194;DHT22;1608;50.860;13.466;2023-04-05T00:36:53;4.10;91.50
3194;DHT22;1608;50.860;13.466;2023-04-05T00:39:20;4.20;91.70
3194;DHT22;1608;50.860;13.466;2023-04-05T00:41:48;4.20;91.70
3194;DHT22;1608;50.860;13.466;2023-04-05T00:44:15;4.20;91.50
3194;DHT22;1608;50.860;13.466;2023-04-05T00:46:42;4.40;91.60
3194;DHT22;1608;50.860;13.466;2023-04-05T00:49:09;4.30;91.40
3194;DHT22;1608;50.860;13.466;2023-04-05T00:51:36;4.30;91.30
3194;DHT22;1608;50.860;13.466;2023-04-05T00:54:03;4.20;91.20
3194;DHT22;1608;50.860;13.466;2023-04-05T00:56:31;3.80;91.00
3194;DHT22;1608;50.860;13.466;2023-04-05T00:58:59;3.80;91.40
3194;DHT22;1608;50.860;13.466;2023-04-05T01:01:27;3.90;91.70
3194;DHT22;1608;50.860;13.466;2023-04-05T01:03:58;4.00;91.70
3194;DHT22;1608;50.860;13.466;2023-04-05T01:06:47;4.10;91.60
3194;DHT22;1608;50.860;13.466;2023-04-05T01:09:28;4.20;91.40
3194;DHT22;1608;50.860;13.466;2023-04-05T01:11:58;4.30;91.20
3194;DHT22;1608;50.860;13.466;2023-04-05T01:14:27;4.20;90.70
3194;DHT22;1608;50.860;13.466;2023-04-05T01:16:54;4.20;90.90
3194;DHT22;1608;50.860;13.466;2023-04-05T01:19:26;4.20;91.00
3194;DHT22;1608;50.860;13.466;2023-04-05T01:25:15;4.30;91.00
3194;DHT22;1608;50.860;13.466;2023-04-05T01:28:08;4.20;91.00
3194;DHT22;1608;50.860;13.466;2023-04-05T01:30:39;4.30;91.00
3194;DHT22;1608;50.860;13.466;2023-04-05T01:33:15;4.20;90.80
3194;DHT22;1608;50.860;13.466;2023-04-05T01:35:49;4.20;91.10
3194;DHT22;1608;50.860;13.466;2023-04-05T01:38:18;4.20;91.20
3194;DHT22;1608;50.860;13.466;2023-04-05T01:40:46;4.20;91.40
3194;DHT22;1608;50.860;13.466;2023-04-05T01:43:14;4.20;91.20
3194;DHT22;1608;50.860;13.466;2023-04-05T01:45:43;4.20;91.20
3194;DHT22;1608;50.860;13.466;2023-04-05T01:48:10;4.20;91.20
3194;DHT22;1608;50.860;13.466;2023-04-05T01:50:37;4.20;91.30
3194;DHT22;1608;50.860;13.466;2023-04-05T01:53:06;4.30;91.30
3194;DHT22;1608;50.860;13.466;2023-04-05T01:55:33;4.30;91.30
3194;DHT22;1608;50.860;13.466;2023-04-05T01:58:00;4.30;91.30
3194;DHT22;1608;50.860;13.466;2023-04-05T02:00:27;4.40;91.40
3194;DHT22;1608;50.860;13.466;2023-04-05T02:02:55;4.30;91.10
3194;DHT22;1608;50.860;13.466;2023-04-05T02:05:22;4.30;91.30
3194;DHT22;1608;50.860;13.466;2023-04-05T02:07:48;4.20;91.00
3194;DHT22;1608;50.860;13.466;2023-04-05T02:10:16;4.20;91.30
3194;DHT22;1608;50.860;13.466;2023-04-05T02:12:43;4.30;91.30
3194;DHT22;1608;50.860;13.466;2023-04-05T02:15:10;4.20;91.10
3194;DHT22;1608;50.860;13.466;2023-04-05T02:17:37;4.20;91.10
3194;DHT22;1608;50.860;13.466;2023-04-05T02:20:07;4.30;91.20
3194;DHT22;1608;50.860;13.466;2023-04-05T02:22:35;4.30;91.10
3194;DHT22;1608;50.860;13.466;2023-04-05T02:25:02;4.30;91.10
3194;DHT22;1608;50.860;13.466;2023-04-05T02:27:31;4.30;91.20
3194;DHT22;1608;50.860;13.466;2023-04-05T02:29:57;4.40;91.10
3194;DHT22;1608;50.860;13.466;2023-04-05T02:32:24;4.40;90.90
3194;DHT22;1608;50.860;13.466;2023-04-05T02:34:51;4.40;90.80
3194;DHT22;1608;50.860;13.466;2023-04-05T02:37:19;4.40;90.80
3194;DHT22;1608;50.860;13.466;2023-04-05T02:39:46;4.30;90.70
3194;DHT22;1608;50.860;13.466;2023-04-05T02:42:13;4.30;91.20
3194;DHT22;1608;50.860;13.466;2023-04-05T02:44:40;4.30;90.90
3194;DHT22;1608;50.860;13.466;2023-04-05T02:47:07;4.40;90.90
3194;DHT22;1608;50.860;13.466;2023-04-05T02:49:34;4.40;91.00
3194;DHT22;1608;50.860;13.466;2023-04-05T02:52:00;4.40;90.90
3194;DHT22;1608;50.860;13.466;2023-04-05T02:54:29;4.40;91.00
3194;DHT22;1608;50.860;13.466;2023-04-05T02:56:55;4.40;91.10
3194;DHT22;1608;50.860;13.466;2023-04-05T02:59:26;4.40;91.30
3194;DHT22;1608;50.860;13.466;2023-04-05T03:01:53;4.40;91.30
3194;DHT22;1608;50.860;13.466;2023-04-05T03:04:20;4.20;91.60
3194;DHT22;1608;50.860;13.466;2023-04-05T03:06:47;4.20;91.80
3194;DHT22;1608;50.860;13.466;2023-04-05T03:09:15;4.30;91.90
3194;DHT22;1608;50.860;13.466;2023-04-05T03:11:43;4.20;91.90
3194;DHT22;1608;50.860;13.466;2023-04-05T03:14:10;4.10;92.20
3194;DHT22;1608;50.860;13.466;2023-04-05T03:16:37;4.20;92.30
3194;DHT22;1608;50.860;13.466;2023-04-05T03:19:05;4.30;92.40
3194;DHT22;1608;50.860;13.466;2023-04-05T03:21:32;4.20;92.30
3194;DHT22;1608;50.860;13.466;2023-04-05T03:23:59;4.30;92.20
3194;DHT22;1608;50.860;13.466;2023-04-05T03:26:26;4.30;92.10
3194;DHT22;1608;50.860;13.466;2023-04-05T03:28:54;4.40;92.30
3194;DHT22;1608;50.860;13.466;2023-04-05T03:31:21;4.40;92.20
3194;DHT22;1608;50.860;13.466;2023-04-05T03:33:48;4.50;92.20
3194;DHT22;1608;50.860;13.466;2023-04-05T03:36:15;4.50;92.20
3194;DHT22;1608;50.860;13.466;2023-04-05T03:38:44;4.60;92.30
3194;DHT22;1608;50.860;13.466;2023-04-05T03:41:11;4.60;92.30
3194;DHT22;1608;50.860;13.466;2023-04-05T03:43:37;4.50;92.20
3194;DHT22;1608;50.860;13.466;2023-04-05T03:46:06;4.50;92.20
3194;DHT22;1608;50.860;13.466;2023-04-05T03:48:33;4.40;92.30
3194;DHT22;1608;50.860;13.466;2023-04-05T03:51:00;4.40;92.50
3194;DHT22;1608;50.860;13.466;2023-04-05T03:53:27;4.50;92.60
3194;DHT22;1608;50.860;13.466;2023-04-05T03:55:54;4.50;92.60
3194;DHT22;1608;50.860;13.466;2023-04-05T03:58:21;4.50;92.70
3194;DHT22;1608;50.860;13.466;2023-04-05T04:00:47;4.50;92.70
3194;DHT22;1608;50.860;13.466;2023-04-05T04:03:16;4.50;92.70
3194;DHT22;1608;50.860;13.466;2023-04-05T04:05:43;4.50;92.80
3194;DHT22;1608;50.860;13.466;2023-04-05T04:08:10;4.50;92.90
3194;DHT22;1608;50.860;13.466;2023-04-05T04:10:37;4.50;92.90
3194;DHT22;1608;50.860;13.466;2023-04-05T04:13:04;4.50;93.00
3194;DHT22;1608;50.860;13.466;2023-04-05T04:15:31;4.50;93.00
3194;DHT22;1608;50.860;13.466;2023-04-05T04:17:58;4.30;92.90
3194;DHT22;1608;50.860;13.466;2023-04-05T04:20:26;4.50;93.10
3194;DHT22;1608;50.860;13.466;2023-04-05T04:22:53;4.50;93.30
3194;DHT22;1608;50.860;13.466;2023-04-05T04:25:20;4.50;93.40
3194;DHT22;1608;50.860;13.466;2023-04-05T04:27:47;4.40;93.30
3194;DHT22;1608;50.860;13.466;2023-04-05T04:30:15;4.40;93.50
3194;DHT22;1608;50.860;13.466;2023-04-05T04:32:42;4.40;93.60
3194;DHT22;1608;50.860;13.466;2023-04-05T04:35:20;4.50;93.70
3194;DHT22;1608;50.860;13.466;2023-04-05T04:37:53;4.50;93.50
3194;DHT22;1608;50.860;13.466;2023-04-05T04:40:22;4.50;93.70
3194;DHT22;1608;50.860;13.466;2023-04-05T04:42:50;4.50;93.70
3194;DHT22;1608;50.860;13.466;2023-04-05T04:45:18;4.50;93.80
3194;DHT22;1608;50.860;13.466;2023-04-05T04:47:47;4.50;93.80
3194;DHT22;1608;50.860;13.466;2023-04-05T04:50:15;4.50;93.90
3194;DHT22;1608;50.860;13.466;2023-04-05T04:52:44;4.50;94.10
3194;DHT22;1608;50.860;13.466;2023-04-05T04:55:13;4.50;94.20
3194;DHT22;1608;50.860;13.466;2023-04-05T04:57:40;4.60;94.30
3194;DHT22;1608;50.860;13.466;2023-04-05T05:00:08;4.60;94.40
3194;DHT22;1608;50.860;13.466;2023-04-05T05:02:37;4.60;94.50
3194;DHT22;1608;50.860;13.466;2023-04-05T05:05:05;4.60;94.60
3194;DHT22;1608;50.860;13.466;2023-04-05T05:07:32;4.60;94.70
3194;DHT22;1608;50.860;13.466;2023-04-05T05:09:58;4.60;94.70
3194;DHT22;1608;50.860;13.466;2023-04-05T05:12:27;4.60;94.80
3194;DHT22;1608;50.860;13.466;2023-04-05T05:14:54;4.60;94.80
3194;DHT22;1608;50.860;13.466;2023-04-05T05:17:21;4.60;94.80
3194;DHT22;1608;50.860;13.466;2023-04-05T05:19:48;4.70;94.40
3194;DHT22;1608;50.860;13.466;2023-04-05T05:22:15;4.70;94.60
3194;DHT22;1608;50.860;13.466;2023-04-05T05:24:43;4.70;94.40
3194;DHT22;1608;50.860;13.466;2023-04-05T05:27:10;4.80;94.30
3194;DHT22;1608;50.860;13.466;2023-04-05T05:29:38;4.80;94.30
3194;DHT22;1608;50.860;13.466;2023-04-05T05:32:05;4.80;94.30
3194;DHT22;1608;50.860;13.466;2023-04-05T05:34:32;4.90;94.30
3194;DHT22;1608;50.860;13.466;2023-04-05T05:36:59;4.90;94.10
3194;DHT22;1608;50.860;13.466;2023-04-05T05:39:26;4.80;94.10
3194;DHT22;1608;50.860;13.466;2023-04-05T05:41:52;4.90;94.10
3194;DHT22;1608;50.860;13.466;2023-04-05T05:44:19;4.90;94.00
3194;DHT22;1608;50.860;13.466;2023-04-05T05:46:47;4.90;94.10
3194;DHT22;1608;50.860;13.466;2023-04-05T05:49:16;5.10;94.00
3194;DHT22;1608;50.860;13.466;2023-04-05T05:51:43;5.00;93.90
3194;DHT22;1608;50.860;13.466;2023-04-05T05:54:10;5.20;93.70
3194;DHT22;1608;50.860;13.466;2023-04-05T05:56:37;5.20;93.60
3194;DHT22;1608;50.860;13.466;2023-04-05T05:59:03;5.20;93.80
3194;DHT22;1608;50.860;13.466;2023-04-05T06:01:31;5.20;93.50
3194;DHT22;1608;50.860;13.466;2023-04-05T06:04:00;5.30;93.40
3194;DHT22;1608;50.860;13.466;2023-04-05T06:06:27;5.40;93.40
3194;DHT22;1608;50.860;13.466;2023-04-05T06:08:54;5.40;93.40
3194;DHT22;1608;50.860;13.466;2023-04-05T06:11:21;5.50;93.30
3194;DHT22;1608;50.860;13.466;2023-04-05T06:13:49;5.50;93.40
3194;DHT22;1608;50.860;13.466;2023-04-05T06:16:16;5.60;93.40
3194;DHT22;1608;50.860;13.466;2023-04-05T06:18:43;5.50;93.20
3194;DHT22;1608;50.860;13.466;2023-04-05T06:21:12;5.50;93.10
3194;DHT22;1608;50.860;13.466;2023-04-05T06:23:39;5.60;93.00
3194;DHT22;1608;50.860;13.466;2023-04-05T06:26:06;5.60;92.80
3194;DHT22;1608;50.860;13.466;2023-04-05T06:28:33;5.50;92.60
3194;DHT22;1608;50.860;13.466;2023-04-05T06:31:00;5.50;92.60
3194;DHT22;1608;50.860;13.466;2023-04-05T06:33:27;5.50;92.30
3194;DHT22;1608;50.860;13.466;2023-04-05T06:35:54;5.60;92.40
3194;DHT22;1608;50.860;13.466;2023-04-05T06:38:22;6.10;91.70
3194;DHT22;1608;50.860;13.466;2023-04-05T06:40:49;6.20;91.80
3194;DHT22;1608;50.860;13.466;2023-04-05T06:43:15;6.40;91.50
3194;DHT22;1608;50.860;13.466;2023-04-05T06:45:42;6.50;91.20
3194;DHT22;1608;50.860;13.466;2023-04-05T06:48:10;6.50;90.60
3194;DHT22;1608;50.860;13.466;2023-04-05T06:50:36;6.50;90.80
3194;DHT22;1608;50.860;13.466;2023-04-05T06:53:05;6.70;90.70
3194;DHT22;1608;50.860;13.466;2023-04-05T06:55:33;6.90;90.20
3194;DHT22;1608;50.860;13.466;2023-04-05T06:58:00;7.10;90.00
3194;DHT22;1608;50.860;13.466;2023-04-05T07:00:27;7.20;88.30
3194;DHT22;1608;50.860;13.466;2023-04-05T07:02:54;7.10;88.90
3194;DHT22;1608;50.860;13.466;2023-04-05T07:05:20;7.10;88.20
3194;DHT22;1608;50.860;13.466;2023-04-05T07:07:47;7.30;88.80
3194;DHT22;1608;50.860;13.466;2023-04-05T07:10:14;7.90;88.90
3194;DHT22;1608;50.860;13.466;2023-04-05T07:12:44;9.30;86.50
3194;DHT22;1608;50.860;13.466;2023-04-05T07:15:11;11.00;82.80
3194;DHT22;1608;50.860;13.466;2023-04-05T07:17:38;12.70;79.20
3194;DHT22;1608;50.860;13.466;2023-04-05T07:20:05;14.00;73.90
3194;DHT22;1608;50.860;13.466;2023-04-05T07:22:33;15.00;68.80
3194;DHT22;1608;50.860;13.466;2023-04-05T07:25:00;15.60;63.80
3194;DHT22;1608;50.860;13.466;2023-04-05T07:27:27;16.30;62.60
3194;DHT22;1608;50.860;13.466;2023-04-05T07:29:57;16.90;60.60
3194;DHT22;1608;50.860;13.466;2023-04-05T07:32:23;15.60;50.60
3194;DHT22;1608;50.860;13.466;2023-04-05T07:34:50;15.50;53.90
3194;DHT22;1608;50.860;13.466;2023-04-05T07:37:17;16.10;54.10
3194;DHT22;1608;50.860;13.466;2023-04-05T07:39:44;16.90;54.20
3194;DHT22;1608;50.860;13.466;2023-04-05T07:42:11;17.80;54.10
3194;DHT22;1608;50.860;13.466;2023-04-05T07:44:37;18.60;52.90
3194;DHT22;1608;50.860;13.466;2023-04-05T07:47:06;19.20;50.80
3194;DHT22;1608;50.860;13.466;2023-04-05T07:49:32;19.80;49.60
3194;DHT22;1608;50.860;13.466;2023-04-05T07:51:59;19.60;47.10
3194;DHT22;1608;50.860;13.466;2023-04-05T07:54:26;20.00;46.80
3194;DHT22;1608;50.860;13.466;2023-04-05T07:56:53;18.80;42.50
3194;DHT22;1608;50.860;13.466;2023-04-05T07:59:22;18.20;43.00
3194;DHT22;1608;50.860;13.466;2023-04-05T08:01:49;17.60;45.60
3194;DHT22;1608;50.860;13.466;2023-04-05T08:04:17;18.00;45.60
3194;DHT22;1608;50.860;13.466;2023-04-05T08:06:45;16.40;42.90
3194;DHT22;1608;50.860;13.466;2023-04-05T08:09:12;13.80;46.20
3194;DHT22;1608;50.860;13.466;2023-04-05T08:11:39;14.30;48.50
3194;DHT22;1608;50.860;13.466;2023-04-05T08:14:06;16.10;49.20
3194;DHT22;1608;50.860;13.466;2023-04-05T08:16:33;16.70;46.40
3194;DHT22;1608;50.860;13.466;2023-04-05T08:19:00;15.00;43.60
3194;DHT22;1608;50.860;13.466;2023-04-05T08:21:28;14.00;43.60
3194;DHT22;1608;50.860;13.466;2023-04-05T08:23:56;13.10;46.80
3194;DHT22;1608;50.860;13.466;2023-04-05T08:26:24;13.30;49.40
3194;DHT22;1608;50.860;13.466;2023-04-05T08:28:51;12.20;48.40
3194;DHT22;1608;50.860;13.466;2023-04-05T08:31:18;11.90;49.40
3194;DHT22;1608;50.860;13.466;2023-04-05T08:33:45;11.30;53.20
3194;DHT22;1608;50.860;13.466;2023-04-05T08:36:12;10.70;53.10
3194;DHT22;1608;50.860;13.466;2023-04-05T08:38:40;10.40;51.00
3194;DHT22;1608;50.860;13.466;2023-04-05T08:41:10;10.40;51.70
3194;DHT22;1608;50.860;13.466;2023-04-05T08:43:46;10.80;52.90
3194;DHT22;1608;50.860;13.466;2023-04-05T08:46:15;11.20;51.40
3194;DHT22;1608;50.860;13.466;2023-04-05T08:48:41;11.40;53.00
3194;DHT22;1608;50.860;13.466;2023-04-05T08:51:09;11.60;53.40
3194;DHT22;1608;50.860;13.466;2023-04-05T08:53:36;11.90;53.20
3194;DHT22;1608;50.860;13.466;2023-04-05T08:56:04;11.30;50.40
3194;DHT22;1608;50.860;13.466;2023-04-05T08:58:34;9.40;49.60
3194;DHT22;1608;50.860;13.466;2023-04-05T09:01:03;9.30;50.60
3194;DHT22;1608;50.860;13.466;2023-04-05T09:03:35;9.30;53.10
3194;DHT22;1608;50.860;13.466;2023-04-05T09:06:04;9.50;54.20
3194;DHT22;1608;50.860;13.466;2023-04-05T09:08:32;10.00;55.10
3194;DHT22;1608;50.860;13.466;2023-04-05T09:10:59;10.00;55.80
3194;DHT22;1608;50.860;13.466;2023-04-05T09:13:27;9.90;55.50
3194;DHT22;1608;50.860;13.466;2023-04-05T09:15:54;10.20;55.00
3194;DHT22;1608;50.860;13.466;2023-04-05T09:18:22;9.90;55.80
3194;DHT22;1608;50.860;13.466;2023-04-05T09:20:49;9.90;56.50
3194;DHT22;1608;50.860;13.466;2023-04-05T09:23:15;10.10;58.10
3194;DHT22;1608;50.860;13.466;2023-04-05T09:25:42;10.60;58.00
3194;DHT22;1608;50.860;13.466;2023-04-05T09:28:11;11.50;56.50
3194;DHT22;1608;50.860;13.466;2023-04-05T09:30:44;11.50;56.60
3194;DHT22;1608;50.860;13.466;2023-04-05T09:33:15;11.80;56.20
3194;DHT22;1608;50.860;13.466;2023-04-05T09:35:44;12.00;55.20
3194;DHT22;1608;50.860;13.466;2023-04-05T09:38:10;12.30;54.70
3194;DHT22;1608;50.860;13.466;2023-04-05T09:40:43;12.30;55.00
3194;DHT22;1608;50.860;13.466;2023-04-05T09:43:10;12.40;54.50
3194;DHT22;1608;50.860;13.466;2023-04-05T09:45:42;12.50;54.00
3194;DHT22;1608;50.860;13.466;2023-04-05T09:48:10;12.60;54.10
3194;DHT22;1608;50.860;13.466;2023-04-05T09:50:38;12.60;54.40
3194;DHT22;1608;50.860;13.466;2023-04-05T09:53:07;12.80;53.60
3194;DHT22;1608;50.860;13.466;2023-04-05T09:55:34;12.80;53.20
3194;DHT22;1608;50.860;13.466;2023-04-05T09:58:02;12.80;53.90
3194;DHT22;1608;50.860;13.466;2023-04-05T10:00:29;12.80;55.30
3194;DHT22;1608;50.860;13.466;2023-04-05T10:02:58;12.80;56.00
3194;DHT22;1608;50.860;13.466;2023-04-05T10:05:26;12.70;56.80
3194;DHT22;1608;50.860;13.466;2023-04-05T10:07:54;12.10;57.50
3194;DHT22;1608;50.860;13.466;2023-04-05T10:10:22;12.00;58.70
3194;DHT22;1608;50.860;13.466;2023-04-05T10:12:49;12.00;58.20
3194;DHT22;1608;50.860;13.466;2023-04-05T10:15:16;11.90;58.20
3194;DHT22;1608;50.860;13.466;2023-04-05T10:17:48;11.80;57.60
3194;DHT22;1608;50.860;13.466;2023-04-05T10:20:18;11.80;57.50
3194;DHT22;1608;50.860;13.466;2023-04-05T10:22:59;11.80;58.30
3194;DHT22;1608;50.860;13.466;2023-04-05T10:25:34;11.20;56.10
3194;DHT22;1608;50.860;13.466;2023-04-05T10:28:10;10.60;60.00
3194;DHT22;1608;50.860;13.466;2023-04-05T10:30:40;10.60;59.00
3194;DHT22;1608;50.860;13.466;2023-04-05T10:33:12;10.50;58.00
3194;DHT22;1608;50.860;13.466;2023-04-05T10:35:55;10.70;58.20
3194;DHT22;1608;50.860;13.466;2023-04-05T10:38:26;10.70;59.00
3194;DHT22;1608;50.860;13.466;2023-04-05T10:40:56;10.80;59.60
3194;DHT22;1608;50.860;13.466;2023-04-05T10:43:24;10.80;58.90
3194;DHT22;1608;50.860;13.466;2023-04-05T10:45:53;10.90;57.30
3194;DHT22;1608;50.860;13.466;2023-04-05T10:48:43;11.40;60.30
3194;DHT22;1608;50.860;13.466;2023-04-05T10:51:12;11.00;57.90
3194;DHT22;1608;50.860;13.466;2023-04-05T10:53:40;10.70;56.80
3194;DHT22;1608;50.860;13.466;2023-04-05T10:56:07;9.50;57.60
3194;DHT22;1608;50.860;13.466;2023-04-05T10:58:34;9.20;60.20
3194;DHT22;1608;50.860;13.466;2023-04-05T11:01:02;9.10;60.30
3194;DHT22;1608;50.860;13.466;2023-04-05T11:03:45;9.00;60.50
3194;DHT22;1608;50.860;13.466;2023-04-05T11:06:30;9.80;60.10
3194;DHT22;1608;50.860;13.466;2023-04-05T11:08:59;10.90;58.70
3194;DHT22;1608;50.860;13.466;2023-04-05T11:11:26;11.00;58.60
3194;DHT22;1608;50.860;13.466;2023-04-05T11:13:53;11.50;58.50
3194;DHT22;1608;50.860;13.466;2023-04-05T11:16:22;11.90;57.40
3194;DHT22;1608;50.860;13.466;2023-04-05T11:18:51;12.40;56.20
3194;DHT22;1608;50.860;13.466;2023-04-05T11:21:28;12.40;56.60
3194;DHT22;1608;50.860;13.466;2023-04-05T11:24:01;12.10;54.90
3194;DHT22;1608;50.860;13.466;2023-04-05T11:26:32;11.30;53.20
3194;DHT22;1608;50.860;13.466;2023-04-05T11:28:59;11.20;53.60
3194;DHT22;1608;50.860;13.466;2023-04-05T11:31:26;11.40;55.10
3194;DHT22;1608;50.860;13.466;2023-04-05T11:33:54;11.00;54.30
3194;DHT22;1608;50.860;13.466;2023-04-05T11:36:38;11.40;57.10
3194;DHT22;1608;50.860;13.466;2023-04-05T11:39:25;13.20;57.50
3194;DHT22;1608;50.860;13.466;2023-04-05T11:41:54;11.40;56.60
3194;DHT22;1608;50.860;13.466;2023-04-05T11:44:22;11.10;55.00
3194;DHT22;1608;50.860;13.466;2023-04-05T11:46:49;10.40;55.30
3194;DHT22;1608;50.860;13.466;2023-04-05T11:49:17;10.50;57.20
3194;DHT22;1608;50.860;13.466;2023-04-05T11:51:47;10.80;58.70
3194;DHT22;1608;50.860;13.466;2023-04-05T11:54:27;10.30;58.40
3194;DHT22;1608;50.860;13.466;2023-04-05T11:56:54;10.20;57.50
3194;DHT22;1608;50.860;13.466;2023-04-05T11:59:27;10.40;58.90
3194;DHT22;1608;50.860;13.466;2023-04-05T12:01:57;10.00;57.50
3194;DHT22;1608;50.860;13.466;2023-04-05T12:04:24;9.80;60.40
3194;DHT22;1608;50.860;13.466;2023-04-05T12:07:08;10.40;61.00
3194;DHT22;1608;50.860;13.466;2023-04-05T12:09:35;10.90;59.70
3194;DHT22;1608;50.860;13.466;2023-04-05T12:12:02;10.70;57.80
3194;DHT22;1608;50.860;13.466;2023-04-05T12:14:31;10.80;59.10
3194;DHT22;1608;50.860;13.466;2023-04-05T12:16:57;10.90;59.30
3194;DHT22;1608;50.860;13.466;2023-04-05T12:19:28;11.20;59.10
3194;DHT22;1608;50.860;13.466;2023-04-05T12:21:55;11.40;58.80
3194;DHT22;1608;50.860;13.466;2023-04-05T12:24:24;11.60;59.50
3194;DHT22;1608;50.860;13.466;2023-04-05T12:26:50;11.50;59.20
3194;DHT22;1608;50.860;13.466;2023-04-05T12:29:17;11.50;58.60
3194;DHT22;1608;50.860;13.466;2023-04-05T12:31:45;10.90;55.40
3194;DHT22;1608;50.860;13.466;2023-04-05T12:34:13;10.20;56.10
3194;DHT22;1608;50.860;13.466;2023-04-05T12:36:43;10.10;58.40
3194;DHT22;1608;50.860;13.466;2023-04-05T12:39:10;10.30;60.70
3194;DHT22;1608;50.860;13.466;2023-04-05T12:41:39;10.50;60.70
3194;DHT22;1608;50.860;13.466;2023-04-05T12:44:10;10.90;60.60
3194;DHT22;1608;50.860;13.466;2023-04-05T12:46:38;11.30;59.60
3194;DHT22;1608;50.860;13.466;2023-04-05T12:49:06;11.80;58.40
3194;DHT22;1608;50.860;13.466;2023-04-05T12:51:36;12.10;57.50
3194;DHT22;1608;50.860;13.466;2023-04-05T12:54:06;12.40;57.20
3194;DHT22;1608;50.860;13.466;2023-04-05T12:56:33;12.60;56.80
3194;DHT22;1608;50.860;13.466;2023-04-05T12:59:04;12.80;58.50
3194;DHT22;1608;50.860;13.466;2023-04-05T13:01:31;12.90;57.40
3194;DHT22;1608;50.860;13.466;2023-04-05T13:03:58;12.70;57.20
3194;DHT22;1608;50.860;13.466;2023-04-05T13:06:26;12.60;56.50
3194;DHT22;1608;50.860;13.466;2023-04-05T13:08:53;12.50;56.70
3194;DHT22;1608;50.860;13.466;2023-04-05T13:11:20;11.40;52.10
3194;DHT22;1608;50.860;13.466;2023-04-05T13:13:46;10.80;54.00
3194;DHT22;1608;50.860;13.466;2023-04-05T13:16:15;10.30;53.90
3194;DHT22;1608;50.860;13.466;2023-04-05T13:18:42;9.70;60.60
3194;DHT22;1608;50.860;13.466;2023-04-05T13:21:09;10.10;59.70
3194;DHT22;1608;50.860;13.466;2023-04-05T13:23:36;9.90;63.60
3194;DHT22;1608;50.860;13.466;2023-04-05T13:26:04;9.80;63.10
3194;DHT22;1608;50.860;13.466;2023-04-05T13:28:31;8.80;64.60
3194;DHT22;1608;50.860;13.466;2023-04-05T13:30:58;8.80;64.90
3194;DHT22;1608;50.860;13.466;2023-04-05T13:33:27;8.40;65.30
3194;DHT22;1608;50.860;13.466;2023-04-05T13:35:53;8.10;67.00
3194;DHT22;1608;50.860;13.466;2023-04-05T13:38:20;8.20;68.20
3194;DHT22;1608;50.860;13.466;2023-04-05T13:40:47;8.80;67.60
3194;DHT22;1608;50.860;13.466;2023-04-05T13:43:14;9.20;64.70
3194;DHT22;1608;50.860;13.466;2023-04-05T13:45:41;8.90;63.40
3194;DHT22;1608;50.860;13.466;2023-04-05T13:48:07;8.50;65.20
3194;DHT22;1608;50.860;13.466;2023-04-05T13:50:36;8.70;66.20
3194;DHT22;1608;50.860;13.466;2023-04-05T13:53:02;8.40;66.00
3194;DHT22;1608;50.860;13.466;2023-04-05T13:55:29;8.50;66.30
3194;DHT22;1608;50.860;13.466;2023-04-05T13:57:56;8.40;66.40
3194;DHT22;1608;50.860;13.466;2023-04-05T14:00:23;8.60;66.40
3194;DHT22;1608;50.860;13.466;2023-04-05T14:02:50;8.60;66.30
3194;DHT22;1608;50.860;13.466;2023-04-05T14:05:17;8.90;65.70
3194;DHT22;1608;50.860;13.466;2023-04-05T14:07:45;8.80;64.40
3194;DHT22;1608;50.860;13.466;2023-04-05T14:10:14;9.00;64.60
3194;DHT22;1608;50.860;13.466;2023-04-05T14:12:41;9.40;64.30
3194;DHT22;1608;50.860;13.466;2023-04-05T14:15:08;9.60;62.60
3194;DHT22;1608;50.860;13.466;2023-04-05T14:17:36;9.90;62.10
3194;DHT22;1608;50.860;13.466;2023-04-05T14:20:03;10.20;60.10
3194;DHT22;1608;50.860;13.466;2023-04-05T14:22:30;10.00;59.70
3194;DHT22;1608;50.860;13.466;2023-04-05T14:24:58;9.60;60.90
3194;DHT22;1608;50.860;13.466;2023-04-05T14:27:25;9.50;61.10
3194;DHT22;1608;50.860;13.466;2023-04-05T14:29:53;9.60;61.90
3194;DHT22;1608;50.860;13.466;2023-04-05T14:32:22;9.90;61.60
3194;DHT22;1608;50.860;13.466;2023-04-05T14:34:49;10.20;59.40
3194;DHT22;1608;50.860;13.466;2023-04-05T14:37:15;10.30;58.60
3194;DHT22;1608;50.860;13.466;2023-04-05T14:39:43;10.20;58.40
3194;DHT22;1608;50.860;13.466;2023-04-05T14:42:12;9.90;59.70
3194;DHT22;1608;50.860;13.466;2023-04-05T14:44:39;9.30;64.90
3194;DHT22;1608;50.860;13.466;2023-04-05T14:47:07;8.60;66.80
3194;DHT22;1608;50.860;13.466;2023-04-05T14:49:33;8.30;68.30
3194;DHT22;1608;50.860;13.466;2023-04-05T14:52:01;8.20;68.80
3194;DHT22;1608;50.860;13.466;2023-04-05T14:54:28;8.00;68.60
3194;DHT22;1608;50.860;13.466;2023-04-05T14:56:54;8.00;71.10
3194;DHT22;1608;50.860;13.466;2023-04-05T14:59:23;7.80;71.20
3194;DHT22;1608;50.860;13.466;2023-04-05T15:01:50;7.90;71.90
3194;DHT22;1608;50.860;13.466;2023-04-05T15:04:17;7.90;70.80
3194;DHT22;1608;50.860;13.466;2023-04-05T15:06:44;7.80;70.60
3194;DHT22;1608;50.860;13.466;2023-04-05T15:09:11;7.90;71.60
3194;DHT22;1608;50.860;13.466;2023-04-05T15:11:38;8.00;73.70
3194;DHT22;1608;50.860;13.466;2023-04-05T15:14:06;8.20;73.30
3194;DHT22;1608;50.860;13.466;2023-04-05T15:16:34;7.70;73.30
3194;DHT22;1608;50.860;13.466;2023-04-05T15:19:01;7.40;72.70
3194;DHT22;1608;50.860;13.466;2023-04-05T15:21:28;7.10;72.80
3194;DHT22;1608;50.860;13.466;2023-04-05T15:23:55;7.20;74.40
3194;DHT22;1608;50.860;13.466;2023-04-05T15:26:22;7.30;73.30
3194;DHT22;1608;50.860;13.466;2023-04-05T15:28:49;7.40;75.60
3194;DHT22;1608;50.860;13.466;2023-04-05T15:31:15;7.50;74.00
3194;DHT22;1608;50.860;13.466;2023-04-05T15:33:44;7.60;71.80
3194;DHT22;1608;50.860;13.466;2023-04-05T15:36:11;7.40;72.00
3194;DHT22;1608;50.860;13.466;2023-04-05T15:38:37;7.10;74.10
3194;DHT22;1608;50.860;13.466;2023-04-05T15:41:05;7.20;74.50
3194;DHT22;1608;50.860;13.466;2023-04-05T15:43:33;7.50;74.10
3194;DHT22;1608;50.860;13.466;2023-04-05T15:46:00;7.70;72.70
3194;DHT22;1608;50.860;13.466;2023-04-05T15:48:29;7.70;72.50
3194;DHT22;1608;50.860;13.466;2023-04-05T15:50:57;7.90;71.60
3194;DHT22;1608;50.860;13.466;2023-04-05T15:53:24;8.20;71.60
3194;DHT22;1608;50.860;13.466;2023-04-05T15:55:51;8.30;70.20
3194;DHT22;1608;50.860;13.466;2023-04-05T15:58:18;8.20;69.50
3194;DHT22;1608;50.860;13.466;2023-04-05T16:00:45;8.20;69.60
3194;DHT22;1608;50.860;13.466;2023-04-05T16:03:12;8.30;70.20
3194;DHT22;1608;50.860;13.466;2023-04-05T16:05:38;8.50;70.30
3194;DHT22;1608;50.860;13.466;2023-04-05T16:08:07;8.60;70.10